<?xml version="1.0" encoding="UTF-8" standalone="no" ?>
<gpx xmlns="http://www.topografix.com/GPX/1/1" xmlns:xsi="http://www.w3.org/2001/XMLSchema-instance" xsi:schemaLocation="http://www.topografix.com/GPX/1/1 http://www.topografix.com/GPX/1/1/gpx.xsd" version="1.1" creator="VisuGPX - https://www.visugpx.com">
  <metadata>
    <name>Maroc 2018 - Trajet complet</name>
    <desc><![CDATA[Maroc 2018 - Trajet complet de tassa ouirgane au Toubkal et retour à Imlil]]></desc>
  </metadata>
  <trk>
    <name><![CDATA[2018-06-17 18:09:42]]></name>
    <trkseg>
      <trkpt lat="31.16679" lon="-7.9932">
        <ele>1460.35</ele>
        <time>2018-06-17T14:00:55Z</time>
      </trkpt>
      <trkpt lat="31.16651" lon="-7.99271">
        <ele>1463.67</ele>
        <time>2018-06-17T14:01:55Z</time>
      </trkpt>
      <trkpt lat="31.16612" lon="-7.9923">
        <ele>1465.95</ele>
        <time>2018-06-17T14:02:55Z</time>
      </trkpt>
      <trkpt lat="31.16572" lon="-7.99165">
        <ele>1465.95</ele>
        <time>2018-06-17T14:03:55Z</time>
      </trkpt>
      <trkpt lat="31.16524" lon="-7.99135">
        <ele>1467.34</ele>
        <time>2018-06-17T14:04:55Z</time>
      </trkpt>
      <trkpt lat="31.16525" lon="-7.99131">
        <ele>1466.27</ele>
        <time>2018-06-17T14:05:56Z</time>
      </trkpt>
      <trkpt lat="31.16478" lon="-7.99119">
        <ele>1469.42</ele>
        <time>2018-06-17T14:07:00Z</time>
      </trkpt>
      <trkpt lat="31.16434" lon="-7.99121">
        <ele>1470.64</ele>
        <time>2018-06-17T14:08:00Z</time>
      </trkpt>
      <trkpt lat="31.16359" lon="-7.99097">
        <ele>1472.45</ele>
        <time>2018-06-17T14:09:00Z</time>
      </trkpt>
      <trkpt lat="31.1628" lon="-7.99068">
        <ele>1477.92</ele>
        <time>2018-06-17T14:10:00Z</time>
      </trkpt>
      <trkpt lat="31.1626" lon="-7.99001">
        <ele>1485.04</ele>
        <time>2018-06-17T14:11:00Z</time>
      </trkpt>
      <trkpt lat="31.16266" lon="-7.98914">
        <ele>1485.37</ele>
        <time>2018-06-17T14:12:00Z</time>
      </trkpt>
      <trkpt lat="31.16196" lon="-7.98916">
        <ele>1489.4</ele>
        <time>2018-06-17T14:13:00Z</time>
      </trkpt>
      <trkpt lat="31.16127" lon="-7.98926">
        <ele>1495.09</ele>
        <time>2018-06-17T14:14:00Z</time>
      </trkpt>
      <trkpt lat="31.1606" lon="-7.98951">
        <ele>1500.01</ele>
        <time>2018-06-17T14:15:00Z</time>
      </trkpt>
      <trkpt lat="31.15987" lon="-7.98955">
        <ele>1502.03</ele>
        <time>2018-06-17T14:16:00Z</time>
      </trkpt>
      <trkpt lat="31.15917" lon="-7.98982">
        <ele>1501.78</ele>
        <time>2018-06-17T14:17:00Z</time>
      </trkpt>
      <trkpt lat="31.15918" lon="-7.99007">
        <ele>1494.66</ele>
        <time>2018-06-17T14:18:00Z</time>
      </trkpt>
      <trkpt lat="31.15903" lon="-7.99005">
        <ele>1488.46</ele>
        <time>2018-06-17T14:19:00Z</time>
      </trkpt>
      <trkpt lat="31.15867" lon="-7.9898">
        <ele>1473.84</ele>
        <time>2018-06-17T14:20:00Z</time>
      </trkpt>
      <trkpt lat="31.15813" lon="-7.98931">
        <ele>1473.19</ele>
        <time>2018-06-17T14:21:00Z</time>
      </trkpt>
      <trkpt lat="31.15775" lon="-7.98933">
        <ele>1468.74</ele>
        <time>2018-06-17T14:22:00Z</time>
      </trkpt>
      <trkpt lat="31.15795" lon="-7.98929">
        <ele>1468.08</ele>
        <time>2018-06-17T14:23:00Z</time>
      </trkpt>
      <trkpt lat="31.15789" lon="-7.98933">
        <ele>1470.91</ele>
        <time>2018-06-17T14:24:00Z</time>
      </trkpt>
      <trkpt lat="31.15756" lon="-7.98946">
        <ele>1465.77</ele>
        <time>2018-06-17T14:25:00Z</time>
      </trkpt>
      <trkpt lat="31.15731" lon="-7.98941">
        <ele>1461.39</ele>
        <time>2018-06-17T14:26:00Z</time>
      </trkpt>
      <trkpt lat="31.15732" lon="-7.98938">
        <ele>1461.46</ele>
        <time>2018-06-17T14:27:00Z</time>
      </trkpt>
      <trkpt lat="31.15706" lon="-7.98941">
        <ele>1461.16</ele>
        <time>2018-06-17T14:28:00Z</time>
      </trkpt>
      <trkpt lat="31.15653" lon="-7.98954">
        <ele>1462.5</ele>
        <time>2018-06-17T14:29:00Z</time>
      </trkpt>
      <trkpt lat="31.15514" lon="-7.99037">
        <ele>1461.54</ele>
        <time>2018-06-17T14:30:08Z</time>
      </trkpt>
      <trkpt lat="31.15485" lon="-7.98991">
        <ele>1456.42</ele>
        <time>2018-06-17T14:31:08Z</time>
      </trkpt>
      <trkpt lat="31.15456" lon="-7.98985">
        <ele>1448.66</ele>
        <time>2018-06-17T14:32:08Z</time>
      </trkpt>
      <trkpt lat="31.15465" lon="-7.9898">
        <ele>1448.59</ele>
        <time>2018-06-17T14:33:08Z</time>
      </trkpt>
      <trkpt lat="31.15465" lon="-7.98923">
        <ele>1451.26</ele>
        <time>2018-06-17T14:34:08Z</time>
      </trkpt>
      <trkpt lat="31.15453" lon="-7.98953">
        <ele>1457.58</ele>
        <time>2018-06-17T14:35:08Z</time>
      </trkpt>
      <trkpt lat="31.15449" lon="-7.98967">
        <ele>1464.32</ele>
        <time>2018-06-17T14:36:08Z</time>
      </trkpt>
      <trkpt lat="31.15412" lon="-7.98936">
        <ele>1473.23</ele>
        <time>2018-06-17T14:37:08Z</time>
      </trkpt>
      <trkpt lat="31.15421" lon="-7.98977">
        <ele>1481.45</ele>
        <time>2018-06-17T14:38:08Z</time>
      </trkpt>
      <trkpt lat="31.1543" lon="-7.99014">
        <ele>1487.27</ele>
        <time>2018-06-17T14:39:08Z</time>
      </trkpt>
      <trkpt lat="31.154" lon="-7.98982">
        <ele>1494.01</ele>
        <time>2018-06-17T14:40:08Z</time>
      </trkpt>
      <trkpt lat="31.15395" lon="-7.98976">
        <ele>1493.92</ele>
        <time>2018-06-17T14:41:08Z</time>
      </trkpt>
      <trkpt lat="31.15395" lon="-7.98972">
        <ele>1494.28</ele>
        <time>2018-06-17T14:42:08Z</time>
      </trkpt>
      <trkpt lat="31.15367" lon="-7.98956">
        <ele>1497.08</ele>
        <time>2018-06-17T14:43:08Z</time>
      </trkpt>
      <trkpt lat="31.15328" lon="-7.98957">
        <ele>1502.48</ele>
        <time>2018-06-17T14:44:08Z</time>
      </trkpt>
      <trkpt lat="31.15281" lon="-7.98961">
        <ele>1505.95</ele>
        <time>2018-06-17T14:45:08Z</time>
      </trkpt>
      <trkpt lat="31.15279" lon="-7.98962">
        <ele>1505.93</ele>
        <time>2018-06-17T14:46:08Z</time>
      </trkpt>
      <trkpt lat="31.15277" lon="-7.98957">
        <ele>1504.28</ele>
        <time>2018-06-17T14:47:08Z</time>
      </trkpt>
      <trkpt lat="31.15261" lon="-7.98944">
        <ele>1507.67</ele>
        <time>2018-06-17T14:48:08Z</time>
      </trkpt>
      <trkpt lat="31.15248" lon="-7.98906">
        <ele>1513.35</ele>
        <time>2018-06-17T14:49:08Z</time>
      </trkpt>
      <trkpt lat="31.15216" lon="-7.98912">
        <ele>1517.57</ele>
        <time>2018-06-17T14:50:08Z</time>
      </trkpt>
      <trkpt lat="31.1518" lon="-7.98925">
        <ele>1519.81</ele>
        <time>2018-06-17T14:51:08Z</time>
      </trkpt>
      <trkpt lat="31.15123" lon="-7.98918">
        <ele>1524.43</ele>
        <time>2018-06-17T14:52:08Z</time>
      </trkpt>
      <trkpt lat="31.15075" lon="-7.98895">
        <ele>1530.44</ele>
        <time>2018-06-17T14:53:09Z</time>
      </trkpt>
      <trkpt lat="31.15056" lon="-7.989">
        <ele>1532.91</ele>
        <time>2018-06-17T14:54:09Z</time>
      </trkpt>
      <trkpt lat="31.15007" lon="-7.98897">
        <ele>1540.61</ele>
        <time>2018-06-17T14:55:09Z</time>
      </trkpt>
      <trkpt lat="31.14969" lon="-7.98914">
        <ele>1541.22</ele>
        <time>2018-06-17T14:56:09Z</time>
      </trkpt>
      <trkpt lat="31.14913" lon="-7.98944">
        <ele>1545.36</ele>
        <time>2018-06-17T14:57:09Z</time>
      </trkpt>
      <trkpt lat="31.14893" lon="-7.99003">
        <ele>1549.6</ele>
        <time>2018-06-17T14:58:09Z</time>
      </trkpt>
      <trkpt lat="31.14846" lon="-7.98974">
        <ele>1557.56</ele>
        <time>2018-06-17T14:59:09Z</time>
      </trkpt>
      <trkpt lat="31.14813" lon="-7.98978">
        <ele>1562.59</ele>
        <time>2018-06-17T15:00:09Z</time>
      </trkpt>
      <trkpt lat="31.14767" lon="-7.98954">
        <ele>1567.73</ele>
        <time>2018-06-17T15:01:09Z</time>
      </trkpt>
      <trkpt lat="31.14724" lon="-7.98911">
        <ele>1569.41</ele>
        <time>2018-06-17T15:02:09Z</time>
      </trkpt>
      <trkpt lat="31.14672" lon="-7.98889">
        <ele>1572.05</ele>
        <time>2018-06-17T15:03:09Z</time>
      </trkpt>
      <trkpt lat="31.14647" lon="-7.9887">
        <ele>1573.22</ele>
        <time>2018-06-17T15:04:09Z</time>
      </trkpt>
      <trkpt lat="31.14618" lon="-7.98814">
        <ele>1577.49</ele>
        <time>2018-06-17T15:05:09Z</time>
      </trkpt>
      <trkpt lat="31.14604" lon="-7.98787">
        <ele>1579.64</ele>
        <time>2018-06-17T15:06:10Z</time>
      </trkpt>
      <trkpt lat="31.14595" lon="-7.98716">
        <ele>1581.76</ele>
        <time>2018-06-17T15:07:10Z</time>
      </trkpt>
      <trkpt lat="31.14557" lon="-7.98672">
        <ele>1585.41</ele>
        <time>2018-06-17T15:08:10Z</time>
      </trkpt>
      <trkpt lat="31.14546" lon="-7.9862">
        <ele>1582.77</ele>
        <time>2018-06-17T15:09:10Z</time>
      </trkpt>
      <trkpt lat="31.14512" lon="-7.98569">
        <ele>1580.37</ele>
        <time>2018-06-17T15:10:10Z</time>
      </trkpt>
      <trkpt lat="31.14452" lon="-7.98567">
        <ele>1582.76</ele>
        <time>2018-06-17T15:11:10Z</time>
      </trkpt>
      <trkpt lat="31.14386" lon="-7.98598">
        <ele>1584.51</ele>
        <time>2018-06-17T15:12:10Z</time>
      </trkpt>
      <trkpt lat="31.14329" lon="-7.98577">
        <ele>1581.32</ele>
        <time>2018-06-17T15:13:10Z</time>
      </trkpt>
      <trkpt lat="31.14256" lon="-7.98529">
        <ele>1574.4</ele>
        <time>2018-06-17T15:14:10Z</time>
      </trkpt>
      <trkpt lat="31.14229" lon="-7.98519">
        <ele>1572.83</ele>
        <time>2018-06-17T15:15:10Z</time>
      </trkpt>
      <trkpt lat="31.14208" lon="-7.98517">
        <ele>1573.58</ele>
        <time>2018-06-17T15:16:10Z</time>
      </trkpt>
      <trkpt lat="31.14151" lon="-7.98465">
        <ele>1575.38</ele>
        <time>2018-06-17T15:17:10Z</time>
      </trkpt>
      <trkpt lat="31.14117" lon="-7.98401">
        <ele>1576.55</ele>
        <time>2018-06-17T15:18:12Z</time>
      </trkpt>
      <trkpt lat="31.14073" lon="-7.98435">
        <ele>1574.37</ele>
        <time>2018-06-17T15:19:12Z</time>
      </trkpt>
      <trkpt lat="31.14048" lon="-7.9845">
        <ele>1574.85</ele>
        <time>2018-06-17T15:20:12Z</time>
      </trkpt>
      <trkpt lat="31.14031" lon="-7.98452">
        <ele>1575.59</ele>
        <time>2018-06-17T15:21:12Z</time>
      </trkpt>
      <trkpt lat="31.14031" lon="-7.98459">
        <ele>1575.6</ele>
        <time>2018-06-17T15:22:12Z</time>
      </trkpt>
      <trkpt lat="31.14028" lon="-7.98455">
        <ele>1576.17</ele>
        <time>2018-06-17T15:23:13Z</time>
      </trkpt>
      <trkpt lat="31.14029" lon="-7.98458">
        <ele>1576.33</ele>
        <time>2018-06-17T15:24:13Z</time>
      </trkpt>
      <trkpt lat="31.14026" lon="-7.98456">
        <ele>1576.46</ele>
        <time>2018-06-17T15:25:13Z</time>
      </trkpt>
      <trkpt lat="31.14027" lon="-7.98457">
        <ele>1575.92</ele>
        <time>2018-06-17T15:26:14Z</time>
      </trkpt>
      <trkpt lat="31.14028" lon="-7.98458">
        <ele>1575.95</ele>
        <time>2018-06-17T15:27:14Z</time>
      </trkpt>
      <trkpt lat="31.14028" lon="-7.98458">
        <ele>1575.96</ele>
        <time>2018-06-17T15:28:15Z</time>
      </trkpt>
      <trkpt lat="31.13997" lon="-7.98476">
        <ele>1578.02</ele>
        <time>2018-06-17T15:29:15Z</time>
      </trkpt>
      <trkpt lat="31.13947" lon="-7.98492">
        <ele>1581.55</ele>
        <time>2018-06-17T15:30:15Z</time>
      </trkpt>
      <trkpt lat="31.13944" lon="-7.98426">
        <ele>1576.45</ele>
        <time>2018-06-17T15:31:15Z</time>
      </trkpt>
      <trkpt lat="31.1392" lon="-7.98413">
        <ele>1575.44</ele>
        <time>2018-06-17T15:32:15Z</time>
      </trkpt>
      <trkpt lat="31.1392" lon="-7.98413">
        <ele>1575.82</ele>
        <time>2018-06-17T15:33:15Z</time>
      </trkpt>
      <trkpt lat="31.13922" lon="-7.98415">
        <ele>1576.03</ele>
        <time>2018-06-17T15:34:15Z</time>
      </trkpt>
      <trkpt lat="31.13917" lon="-7.98414">
        <ele>1575.85</ele>
        <time>2018-06-17T15:35:15Z</time>
      </trkpt>
      <trkpt lat="31.139" lon="-7.98403">
        <ele>1574.92</ele>
        <time>2018-06-17T15:36:15Z</time>
      </trkpt>
      <trkpt lat="31.139" lon="-7.98405">
        <ele>1574.08</ele>
        <time>2018-06-17T15:37:15Z</time>
      </trkpt>
      <trkpt lat="31.13899" lon="-7.98404">
        <ele>1574.57</ele>
        <time>2018-06-17T15:38:15Z</time>
      </trkpt>
      <trkpt lat="31.13897" lon="-7.98418">
        <ele>1574.26</ele>
        <time>2018-06-17T15:39:15Z</time>
      </trkpt>
      <trkpt lat="31.13897" lon="-7.98401">
        <ele>1573.89</ele>
        <time>2018-06-17T15:40:15Z</time>
      </trkpt>
      <trkpt lat="31.13898" lon="-7.98405">
        <ele>1573.82</ele>
        <time>2018-06-17T15:41:15Z</time>
      </trkpt>
      <trkpt lat="31.13885" lon="-7.98398">
        <ele>1573.92</ele>
        <time>2018-06-17T15:42:15Z</time>
      </trkpt>
      <trkpt lat="31.13845" lon="-7.98397">
        <ele>1576.44</ele>
        <time>2018-06-17T15:43:15Z</time>
      </trkpt>
      <trkpt lat="31.13805" lon="-7.98383">
        <ele>1577.41</ele>
        <time>2018-06-17T15:44:15Z</time>
      </trkpt>
      <trkpt lat="31.13767" lon="-7.98346">
        <ele>1580.13</ele>
        <time>2018-06-17T15:45:15Z</time>
      </trkpt>
      <trkpt lat="31.13713" lon="-7.98312">
        <ele>1583.05</ele>
        <time>2018-06-17T15:46:15Z</time>
      </trkpt>
      <trkpt lat="31.13703" lon="-7.98308">
        <ele>1583.4</ele>
        <time>2018-06-17T15:47:15Z</time>
      </trkpt>
      <trkpt lat="31.13712" lon="-7.98308">
        <ele>1582.97</ele>
        <time>2018-06-17T15:48:15Z</time>
      </trkpt>
      <trkpt lat="31.13693" lon="-7.98287">
        <ele>1583.85</ele>
        <time>2018-06-17T15:49:15Z</time>
      </trkpt>
      <trkpt lat="31.13681" lon="-7.98266">
        <ele>1585.3</ele>
        <time>2018-06-17T15:50:15Z</time>
      </trkpt>
      <trkpt lat="31.13671" lon="-7.98247">
        <ele>1585.84</ele>
        <time>2018-06-17T15:51:15Z</time>
      </trkpt>
      <trkpt lat="31.13659" lon="-7.98235">
        <ele>1586.86</ele>
        <time>2018-06-17T15:52:15Z</time>
      </trkpt>
      <trkpt lat="31.13613" lon="-7.98206">
        <ele>1589.41</ele>
        <time>2018-06-17T15:53:15Z</time>
      </trkpt>
      <trkpt lat="31.1358" lon="-7.98167">
        <ele>1592.74</ele>
        <time>2018-06-17T15:54:15Z</time>
      </trkpt>
      <trkpt lat="31.13534" lon="-7.9815">
        <ele>1595.85</ele>
        <time>2018-06-17T15:55:15Z</time>
      </trkpt>
      <trkpt lat="31.13511" lon="-7.98146">
        <ele>1597.85</ele>
        <time>2018-06-17T15:56:15Z</time>
      </trkpt>
      <trkpt lat="31.13509" lon="-7.9814">
        <ele>1596.84</ele>
        <time>2018-06-17T15:57:15Z</time>
      </trkpt>
      <trkpt lat="31.1349" lon="-7.98116">
        <ele>1598.6</ele>
        <time>2018-06-17T15:58:15Z</time>
      </trkpt>
      <trkpt lat="31.13462" lon="-7.98087">
        <ele>1601.14</ele>
        <time>2018-06-17T15:59:15Z</time>
      </trkpt>
      <trkpt lat="31.13467" lon="-7.98078">
        <ele>1602.91</ele>
        <time>2018-06-17T16:00:16Z</time>
      </trkpt>
      <trkpt lat="31.13467" lon="-7.98068">
        <ele>1603.17</ele>
        <time>2018-06-17T16:01:16Z</time>
      </trkpt>
      <trkpt lat="31.1346" lon="-7.98056">
        <ele>1604.46</ele>
        <time>2018-06-17T16:02:16Z</time>
      </trkpt>
      <trkpt lat="31.13468" lon="-7.98046">
        <ele>1605.17</ele>
        <time>2018-06-17T16:03:16Z</time>
      </trkpt>
      <trkpt lat="31.13463" lon="-7.98049">
        <ele>1605.56</ele>
        <time>2018-06-17T16:04:16Z</time>
      </trkpt>
      <trkpt lat="31.13451" lon="-7.98064">
        <ele>1604.03</ele>
        <time>2018-06-17T16:05:16Z</time>
      </trkpt>
      <trkpt lat="31.13451" lon="-7.98063">
        <ele>1604.15</ele>
        <time>2018-06-17T16:06:16Z</time>
      </trkpt>
      <trkpt lat="31.13452" lon="-7.98065">
        <ele>1603.56</ele>
        <time>2018-06-17T16:07:16Z</time>
      </trkpt>
      <trkpt lat="31.13454" lon="-7.98064">
        <ele>1603.43</ele>
        <time>2018-06-17T16:08:16Z</time>
      </trkpt>
      <trkpt lat="31.13453" lon="-7.98065">
        <ele>1602.93</ele>
        <time>2018-06-17T16:09:16Z</time>
      </trkpt>
      <trkpt lat="31.13451" lon="-7.98065">
        <ele>1603.28</ele>
        <time>2018-06-17T16:10:16Z</time>
      </trkpt>
      <trkpt lat="31.13453" lon="-7.98057">
        <ele>1603.88</ele>
        <time>2018-06-17T16:11:16Z</time>
      </trkpt>
      <trkpt lat="31.13469" lon="-7.98017">
        <ele>1609.86</ele>
        <time>2018-06-17T16:12:16Z</time>
      </trkpt>
      <trkpt lat="31.13468" lon="-7.97986">
        <ele>1613.94</ele>
        <time>2018-06-17T16:13:16Z</time>
      </trkpt>
      <trkpt lat="31.13465" lon="-7.97949">
        <ele>1622.01</ele>
        <time>2018-06-17T16:14:16Z</time>
      </trkpt>
      <trkpt lat="31.13458" lon="-7.97973">
        <ele>1628.26</ele>
        <time>2018-06-17T16:15:16Z</time>
      </trkpt>
      <trkpt lat="31.13432" lon="-7.97985">
        <ele>1635.89</ele>
        <time>2018-06-17T16:16:16Z</time>
      </trkpt>
      <trkpt lat="31.13403" lon="-7.97966">
        <ele>1643.83</ele>
        <time>2018-06-17T16:17:16Z</time>
      </trkpt>
      <trkpt lat="31.13389" lon="-7.97949">
        <ele>1651.77</ele>
        <time>2018-06-17T16:18:16Z</time>
      </trkpt>
      <trkpt lat="31.13355" lon="-7.97943">
        <ele>1660.33</ele>
        <time>2018-06-17T16:19:16Z</time>
      </trkpt>
      <trkpt lat="31.13377" lon="-7.97933">
        <ele>1667.79</ele>
        <time>2018-06-17T16:20:16Z</time>
      </trkpt>
      <trkpt lat="31.13393" lon="-7.97913">
        <ele>1676.05</ele>
        <time>2018-06-17T16:21:18Z</time>
      </trkpt>
      <trkpt lat="31.13383" lon="-7.97896">
        <ele>1684.45</ele>
        <time>2018-06-17T16:22:18Z</time>
      </trkpt>
      <trkpt lat="31.13393" lon="-7.97852">
        <ele>1687.13</ele>
        <time>2018-06-17T16:23:18Z</time>
      </trkpt>
      <trkpt lat="31.1339" lon="-7.97821">
        <ele>1692.63</ele>
        <time>2018-06-17T16:24:18Z</time>
      </trkpt>
      <trkpt lat="31.13392" lon="-7.97799">
        <ele>1700.38</ele>
        <time>2018-06-17T16:25:18Z</time>
      </trkpt>
      <trkpt lat="31.13396" lon="-7.9777">
        <ele>1702.53</ele>
        <time>2018-06-17T16:26:18Z</time>
      </trkpt>
      <trkpt lat="31.13389" lon="-7.97759">
        <ele>1707.98</ele>
        <time>2018-06-17T16:27:18Z</time>
      </trkpt>
      <trkpt lat="31.13396" lon="-7.97756">
        <ele>1709.01</ele>
        <time>2018-06-17T16:28:19Z</time>
      </trkpt>
      <trkpt lat="31.13396" lon="-7.97755">
        <ele>1708.59</ele>
        <time>2018-06-17T16:29:19Z</time>
      </trkpt>
      <trkpt lat="31.13396" lon="-7.97763">
        <ele>1707.92</ele>
        <time>2018-06-17T16:30:19Z</time>
      </trkpt>
      <trkpt lat="31.13398" lon="-7.97731">
        <ele>1713.18</ele>
        <time>2018-06-17T16:31:19Z</time>
      </trkpt>
      <trkpt lat="31.13384" lon="-7.97672">
        <ele>1713.95</ele>
        <time>2018-06-17T16:32:19Z</time>
      </trkpt>
      <trkpt lat="31.1335" lon="-7.97621">
        <ele>1715.35</ele>
        <time>2018-06-17T16:33:19Z</time>
      </trkpt>
      <trkpt lat="31.13312" lon="-7.97615">
        <ele>1714.32</ele>
        <time>2018-06-17T16:34:19Z</time>
      </trkpt>
      <trkpt lat="31.13293" lon="-7.97622">
        <ele>1715.78</ele>
        <time>2018-06-17T16:35:19Z</time>
      </trkpt>
      <trkpt lat="31.13273" lon="-7.97615">
        <ele>1717.88</ele>
        <time>2018-06-17T16:36:19Z</time>
      </trkpt>
      <trkpt lat="31.13272" lon="-7.97589">
        <ele>1716.63</ele>
        <time>2018-06-17T16:37:19Z</time>
      </trkpt>
      <trkpt lat="31.13278" lon="-7.97573">
        <ele>1717.98</ele>
        <time>2018-06-17T16:38:19Z</time>
      </trkpt>
      <trkpt lat="31.13277" lon="-7.97571">
        <ele>1716.95</ele>
        <time>2018-06-17T16:39:19Z</time>
      </trkpt>
      <trkpt lat="31.1325" lon="-7.97572">
        <ele>1722.31</ele>
        <time>2018-06-17T16:40:19Z</time>
      </trkpt>
      <trkpt lat="31.13231" lon="-7.97546">
        <ele>1731.37</ele>
        <time>2018-06-17T16:41:19Z</time>
      </trkpt>
      <trkpt lat="31.13208" lon="-7.97539">
        <ele>1734.96</ele>
        <time>2018-06-17T16:42:21Z</time>
      </trkpt>
      <trkpt lat="31.13187" lon="-7.97558">
        <ele>1742.67</ele>
        <time>2018-06-17T16:43:21Z</time>
      </trkpt>
      <trkpt lat="31.13187" lon="-7.97539">
        <ele>1748.45</ele>
        <time>2018-06-17T16:44:21Z</time>
      </trkpt>
      <trkpt lat="31.13188" lon="-7.97526">
        <ele>1754.74</ele>
        <time>2018-06-17T16:45:21Z</time>
      </trkpt>
      <trkpt lat="31.13195" lon="-7.97507">
        <ele>1758.29</ele>
        <time>2018-06-17T16:46:21Z</time>
      </trkpt>
      <trkpt lat="31.13203" lon="-7.97466">
        <ele>1757.35</ele>
        <time>2018-06-17T16:47:21Z</time>
      </trkpt>
      <trkpt lat="31.13255" lon="-7.9747">
        <ele>1762</ele>
        <time>2018-06-17T16:48:21Z</time>
      </trkpt>
      <trkpt lat="31.13308" lon="-7.97457">
        <ele>1758.54</ele>
        <time>2018-06-17T16:49:21Z</time>
      </trkpt>
      <trkpt lat="31.13353" lon="-7.97469">
        <ele>1760.1</ele>
        <time>2018-06-17T16:50:21Z</time>
      </trkpt>
      <trkpt lat="31.13376" lon="-7.9755">
        <ele>1761.6</ele>
        <time>2018-06-17T16:51:21Z</time>
      </trkpt>
      <trkpt lat="31.13418" lon="-7.97568">
        <ele>1762.26</ele>
        <time>2018-06-17T16:52:21Z</time>
      </trkpt>
      <trkpt lat="31.13424" lon="-7.97576">
        <ele>1763.76</ele>
        <time>2018-06-17T16:53:21Z</time>
      </trkpt>
      <trkpt lat="31.13427" lon="-7.97576">
        <ele>1763.34</ele>
        <time>2018-06-17T16:54:21Z</time>
      </trkpt>
      <trkpt lat="31.13449" lon="-7.97598">
        <ele>1767.26</ele>
        <time>2018-06-17T16:55:21Z</time>
      </trkpt>
      <trkpt lat="31.13475" lon="-7.97626">
        <ele>1770.34</ele>
        <time>2018-06-17T16:56:21Z</time>
      </trkpt>
      <trkpt lat="31.13478" lon="-7.9763">
        <ele>1770.33</ele>
        <time>2018-06-17T16:57:21Z</time>
      </trkpt>
      <trkpt lat="31.13497" lon="-7.9762">
        <ele>1767.46</ele>
        <time>2018-06-17T16:58:21Z</time>
      </trkpt>
      <trkpt lat="31.13532" lon="-7.97581">
        <ele>1765.77</ele>
        <time>2018-06-17T16:59:21Z</time>
      </trkpt>
      <trkpt lat="31.13542" lon="-7.97564">
        <ele>1767.62</ele>
        <time>2018-06-17T17:00:21Z</time>
      </trkpt>
      <trkpt lat="31.13538" lon="-7.97565">
        <ele>1767.89</ele>
        <time>2018-06-17T17:01:21Z</time>
      </trkpt>
      <trkpt lat="31.13536" lon="-7.97571">
        <ele>1767.62</ele>
        <time>2018-06-17T17:02:21Z</time>
      </trkpt>
      <trkpt lat="31.13535" lon="-7.97568">
        <ele>1768.15</ele>
        <time>2018-06-17T17:03:21Z</time>
      </trkpt>
      <trkpt lat="31.1358" lon="-7.97612">
        <ele>1768.44</ele>
        <time>2018-06-17T17:05:10Z</time>
      </trkpt>
      <trkpt lat="31.13533" lon="-7.97572">
        <ele>1771.41</ele>
        <time>2018-06-17T17:06:10Z</time>
      </trkpt>
      <trkpt lat="31.13531" lon="-7.97571">
        <ele>1772.04</ele>
        <time>2018-06-17T17:07:10Z</time>
      </trkpt>
      <trkpt lat="31.13529" lon="-7.97579">
        <ele>1771.38</ele>
        <time>2018-06-17T17:08:10Z</time>
      </trkpt>
      <trkpt lat="31.13523" lon="-7.97582">
        <ele>1771.06</ele>
        <time>2018-06-17T17:09:10Z</time>
      </trkpt>
      <trkpt lat="31.13527" lon="-7.97582">
        <ele>1770.09</ele>
        <time>2018-06-17T17:09:41Z</time>
      </trkpt>
    </trkseg>
  </trk>
</gpx>